RJCK

Details ICAO RJCK (KUH)
Name KUSHIRO
Region Japan
Timezone Asia/Tokyo (UTC+9.0)
Plans Departing 14
Arriving 16
Stats Elevation 327 ft / 100 m (AMSL)
Location 43.040970° 144.192986°
Runways 1
Magnetic Variation 8.966° W
Sunrise 2018-05-23 18:53:41 UTC / 2018-05-24 03:53:41 Local
Sunset 2018-05-24 09:49:15 UTC / 2018-05-24 18:49:15 Local
Advertisement - Login to hide

Runways

ID Width Length Bearing (true) Bearing (mag) Surface Threshold Offset Overrun Length
17 150 ft / 46 m 8,209 ft / 2,502 m 159.02° 167.99° Asphalt 0 ft / 0 m 200 ft / 61 m
35 150 ft / 46 m 8,209 ft / 2,502 m 339.03° 348.00° Asphalt 0 ft / 0 m 200 ft / 61 m

Approach Navaids

Runway Type Ident Frequency Range Bearing (true) Bearing (mag) Slope Elevation
17 Localiser IKS 108.90 MHz 18 nm / 33 km 159.03° 167.99° - 327 ft / 100 m (AMSL)
17 Glidescope IKS 108.90 MHz 10 nm / 19 km 159.03° 167.99° 3.00° 322 ft / 98 m (AMSL)

Map

Weather


0- 5 10 15 20 25 30 35+ Temperature / ° C

Clouds and Precipitation
Forecast for 2018-05-24 12:00 UTC. Updated an hour ago

Ground ~20,000 ft ~40,000 ft Winds

METAR

RJCK 241100Z 01007KT 9999 -SHRA FEW008 SCT040 BKN070 09/08 Q1003

TAF

TAF RJCK 241115Z 2412/2518 03006KT 9999 FEW015 SCT030 BECMG 2418/2420 19016KT TEMPO 2503/2509 FEW015 BKN030 FEW030CB BECMG 2506/2509 33007KT

Frequencies

Tower 126.20 MHz TWR
Tower 118.05 MHz TWR
Warning: Do not use this data for real-world aviation or navigation. No guarantee of current accuracy is given.